createdAt,value
2022-09-02T00:01:02.501Z,13.59
2022-09-02T00:06:07.536Z,13.50
2022-09-02T00:11:18.386Z,13.42
2022-09-02T00:16:24.692Z,13.32
2022-09-02T00:21:30.103Z,13.22
2022-09-02T00:26:37.424Z,13.12
2022-09-02T00:31:42.991Z,13.07
2022-09-02T00:36:47.780Z,12.99
2022-09-02T00:41:55.632Z,12.94
2022-09-02T00:47:00.341Z,12.86
2022-09-02T00:52:10.559Z,12.76
2022-09-02T00:57:23.649Z,12.61
2022-09-02T01:02:31.818Z,12.54
2022-09-02T01:07:39.129Z,12.53
2022-09-02T01:12:47.522Z,12.48
2022-09-02T01:17:54.818Z,12.41
2022-09-02T01:23:02.636Z,12.36
2022-09-02T01:28:10.352Z,12.29
2022-09-02T01:33:18.220Z,12.23
2022-09-02T01:38:27.016Z,12.15
2022-09-02T01:43:32.643Z,12.09
2022-09-02T01:48:38.212Z,12.05
2022-09-02T01:53:45.626Z,11.99
2022-09-02T01:58:50.258Z,11.94
2022-09-02T02:03:57.455Z,11.91
2022-09-02T02:09:05.358Z,11.88
2022-09-02T02:14:11.103Z,11.83
2022-09-02T02:19:22.899Z,11.79
2022-09-02T02:24:30.825Z,11.72
2022-09-02T02:29:35.538Z,11.66
2022-09-02T02:34:40.432Z,11.59
2022-09-02T02:39:47.758Z,11.52
2022-09-02T02:44:52.745Z,11.41
2022-09-02T02:49:57.526Z,11.36
2022-09-02T02:55:06.684Z,11.30
2022-09-02T03:00:15.624Z,11.23
2022-09-02T03:05:20.765Z,11.17
2022-09-02T03:10:29.729Z,11.12
2022-09-02T03:15:34.958Z,11.05
2022-09-02T03:20:39.689Z,10.98
2022-09-02T03:25:49.067Z,10.92
2022-09-02T03:31:18.897Z,10.77
2022-09-02T03:36:26.060Z,10.72
2022-09-02T03:41:34.151Z,10.67
2022-09-02T03:46:39.188Z,10.56
2022-09-02T03:51:45.921Z,10.47
2022-09-02T03:56:53.382Z,10.40
2022-09-02T04:01:58.824Z,10.36
2022-09-02T04:07:04.470Z,10.37
2022-09-02T04:12:11.803Z,10.38
2022-09-02T04:17:16.562Z,10.39
2022-09-02T04:22:21.441Z,10.40
2022-09-02T04:27:29.694Z,10.41
2022-09-02T04:32:39.775Z,10.38
2022-09-02T04:37:47.310Z,10.34
2022-09-02T04:42:55.754Z,10.27
2022-09-02T04:48:02.686Z,10.23
2022-09-02T04:53:08.881Z,10.19
2022-09-02T04:58:16.790Z,10.17
2022-09-02T05:03:24.810Z,10.13
2022-09-02T05:08:30.632Z,10.09
2022-09-02T05:13:39.885Z,10.06
2022-09-02T05:18:45.551Z,10.06
2022-09-02T05:23:50.660Z,10.05
2022-09-02T05:29:02.731Z,10.07
2022-09-02T05:34:07.664Z,10.10
2022-09-02T05:39:13.286Z,10.15
2022-09-02T05:44:20.520Z,10.24
2022-09-02T05:49:27.019Z,10.30
2022-09-02T05:54:41.300Z,10.40
2022-09-02T05:59:56.178Z,10.53
2022-09-02T06:05:04.503Z,10.64
2022-09-02T06:10:09.832Z,10.78
2022-09-02T06:15:17.728Z,10.94
2022-09-02T06:20:22.511Z,11.15
2022-09-02T06:25:27.586Z,11.33
2022-09-02T06:30:35.099Z,11.51
2022-09-02T06:35:42.439Z,11.69
2022-09-02T06:40:50.701Z,11.88
2022-09-02T06:46:02.639Z,12.08
2022-09-02T06:51:08.066Z,12.25
2022-09-02T06:56:13.102Z,12.44
2022-09-02T07:01:24.659Z,12.63
2022-09-02T07:06:29.706Z,12.87
2022-09-02T07:11:35.049Z,13.04
2022-09-02T07:16:50.611Z,13.25
2022-09-02T07:21:56.017Z,13.46
2022-09-02T07:27:01.276Z,13.72
2022-09-02T07:32:09.015Z,14.03
2022-09-02T07:37:13.853Z,14.28
2022-09-02T07:42:20.625Z,14.56
2022-09-02T07:47:28.754Z,14.76
2022-09-02T07:52:33.768Z,14.99
2022-09-02T07:57:38.570Z,15.23
2022-09-02T08:02:46.991Z,15.40
2022-09-02T08:07:57.062Z,15.70
2022-09-02T08:13:03.371Z,15.92
2022-09-02T08:18:14.506Z,16.15
2022-09-02T08:23:36.774Z,16.39
2022-09-02T08:28:42.200Z,16.58
2022-09-02T08:33:49.448Z,16.81
2022-09-02T08:38:55.833Z,17.01
2022-09-02T08:44:02.929Z,17.25
2022-09-02T08:49:14.368Z,17.43
2022-09-02T08:54:23.553Z,17.59
2022-09-02T08:59:31.647Z,17.79
2022-09-02T09:05:00.612Z,18.02
2022-09-02T09:10:12.322Z,18.24
2022-09-02T09:15:24.901Z,18.45
2022-09-02T09:20:35.777Z,18.59
2022-09-02T09:25:40.279Z,18.81
2022-09-02T09:30:44.892Z,19.01
2022-09-02T09:35:58.780Z,19.27
2022-09-02T09:41:16.618Z,19.42
2022-09-02T09:46:33.078Z,19.59
2022-09-02T09:51:49.799Z,19.69
2022-09-02T09:56:55.790Z,19.77
2022-09-02T10:02:01.278Z,19.84
2022-09-02T10:07:13.662Z,19.99
2022-09-02T10:12:34.595Z,20.20
2022-09-02T10:17:50.156Z,20.34
2022-09-02T10:23:12.942Z,20.45
2022-09-02T10:28:33.904Z,20.67
2022-09-02T10:33:49.042Z,20.88
2022-09-02T10:38:56.487Z,21.11
2022-09-02T10:44:22.060Z,21.31
2022-09-02T10:49:51.834Z,21.48
2022-09-02T10:55:09.991Z,21.58
2022-09-02T11:00:18.666Z,21.84
2022-09-02T11:05:28.422Z,22.04
2022-09-02T11:10:41.176Z,21.90
2022-09-02T11:15:51.764Z,21.89
2022-09-02T11:21:03.784Z,21.85
2022-09-02T11:26:18.741Z,22.05
2022-09-02T11:31:34.696Z,22.19
2022-09-02T11:36:42.129Z,22.20
2022-09-02T11:42:04.393Z,22.19
2022-09-02T11:47:46.300Z,22.28
2022-09-02T11:53:07.111Z,22.24
2022-09-02T11:58:14.388Z,22.28
2022-09-02T12:04:06.521Z,22.46
2022-09-02T12:09:05.856Z,22.47
2022-09-02T12:14:34.759Z,22.67
2022-09-02T12:19:45.792Z,22.69
2022-09-02T12:24:53.838Z,22.69
2022-09-02T12:30:02.010Z,22.82
2022-09-02T12:35:17.252Z,22.80
2022-09-02T12:40:32.090Z,22.82
2022-09-02T12:45:45.926Z,22.56
2022-09-02T12:50:57.726Z,22.58
2022-09-02T12:56:05.674Z,22.62
2022-09-02T13:01:22.284Z,22.65
2022-09-02T13:06:36.563Z,22.70
2022-09-02T13:12:16.325Z,22.95
2022-09-02T13:17:48.784Z,22.92
2022-09-02T13:23:11.915Z,22.87
2022-09-02T13:28:54.390Z,22.92
2022-09-02T13:34:08.203Z,22.82
2022-09-02T13:39:15.318Z,22.73
2022-09-02T13:44:24.892Z,22.61
2022-09-02T13:49:38.131Z,22.82
2022-09-02T13:54:46.692Z,23.43
2022-09-02T13:59:54.341Z,24.03
2022-09-02T14:05:07.927Z,24.45
2022-09-02T14:10:15.607Z,24.96
2022-09-02T14:15:27.810Z,25.16
2022-09-02T14:20:35.500Z,25.53
2022-09-02T14:25:42.653Z,25.94
2022-09-02T14:30:58.185Z,26.26
2022-09-02T14:36:07.872Z,26.20
2022-09-02T14:41:16.024Z,26.42
2022-09-02T14:46:28.707Z,26.61
2022-09-02T14:51:40.413Z,26.69
2022-09-02T14:56:50.780Z,25.85
2022-09-02T15:01:57.639Z,25.57
2022-09-02T15:07:04.782Z,25.94
2022-09-02T15:12:11.167Z,26.30
2022-09-02T15:17:18.746Z,26.65
2022-09-02T15:22:38.598Z,26.84
2022-09-02T15:27:45.772Z,26.94
2022-09-02T15:32:51.345Z,27.18
2022-09-02T15:37:56.087Z,27.16
2022-09-02T15:43:03.261Z,26.90
2022-09-02T15:48:07.812Z,26.55
2022-09-02T15:53:12.535Z,26.16
2022-09-02T15:58:19.723Z,25.59
2022-09-02T16:03:24.544Z,25.11
2022-09-02T16:08:29.254Z,24.40
2022-09-02T16:13:37.623Z,24.46
2022-09-02T16:18:43.931Z,24.24
2022-09-02T16:23:49.521Z,23.91
2022-09-02T16:28:58.343Z,23.90
2022-09-02T16:34:05.217Z,23.90
2022-09-02T16:39:11.899Z,23.98
2022-09-02T16:44:20.650Z,23.77
2022-09-02T16:49:25.237Z,23.65
2022-09-02T16:54:30.775Z,23.26
2022-09-02T16:59:39.550Z,22.81
2022-09-02T17:04:44.237Z,22.82
2022-09-02T17:09:48.827Z,22.46
2022-09-02T17:14:55.993Z,22.25
2022-09-02T17:20:00.566Z,21.89
2022-09-02T17:25:06.449Z,21.47
2022-09-02T17:30:14.542Z,21.03
2022-09-02T17:35:19.607Z,20.78
2022-09-02T17:40:36.683Z,20.37
2022-09-02T17:45:43.784Z,20.14
2022-09-02T17:50:48.773Z,19.96
2022-09-02T17:55:58.716Z,19.68
2022-09-02T18:01:10.697Z,19.56
2022-09-02T18:06:22.607Z,19.40
2022-09-02T18:11:31.855Z,19.18
2022-09-02T18:16:51.763Z,19.02
2022-09-02T18:22:08.365Z,18.91
2022-09-02T18:27:19.976Z,18.85
2022-09-02T18:32:44.469Z,18.73
2022-09-02T18:38:06.725Z,18.64
2022-09-02T18:43:19.690Z,18.55
2022-09-02T18:48:31.073Z,18.48
2022-09-02T18:53:42.102Z,18.40
2022-09-02T18:58:50.242Z,18.32
2022-09-02T19:04:00.340Z,18.29
2022-09-02T19:09:07.935Z,18.20
2022-09-02T19:14:27.211Z,18.13
2022-09-02T19:19:36.569Z,18.02
2022-09-02T19:24:49.093Z,17.95
2022-09-02T19:30:00.067Z,17.86
2022-09-02T19:35:16.918Z,17.82
2022-09-02T19:40:24.132Z,17.72
2022-09-02T19:45:29.668Z,17.63
2022-09-02T19:50:40.930Z,17.51
2022-09-02T19:55:51.932Z,17.41
2022-09-02T20:00:59.428Z,17.31
2022-09-02T20:06:10.656Z,17.18
2022-09-02T20:11:18.171Z,17.02
2022-09-02T20:16:25.589Z,16.90
2022-09-02T20:21:45.818Z,16.74
2022-09-02T20:26:59.162Z,16.61
2022-09-02T20:32:17.271Z,16.50
2022-09-02T20:37:36.502Z,16.39
2022-09-02T20:43:04.531Z,16.30
2022-09-02T20:48:27.629Z,16.18
2022-09-02T20:54:00.896Z,16.15
2022-09-02T20:59:17.925Z,16.11
2022-09-02T21:04:33.370Z,16.09
2022-09-02T21:09:54.015Z,16.08
2022-09-02T21:15:03.661Z,16.03
2022-09-02T21:20:19.397Z,16.00
2022-09-02T21:25:32.183Z,15.98
2022-09-02T21:30:42.836Z,15.95
2022-09-02T21:35:50.490Z,15.92
2022-09-02T21:41:14.200Z,15.89
2022-09-02T21:46:28.956Z,15.82
2022-09-02T21:51:39.640Z,15.78
2022-09-02T21:56:58.280Z,15.75
2022-09-02T22:02:12.042Z,15.74
2022-09-02T22:07:22.591Z,15.69
2022-09-02T22:12:30.506Z,15.66
2022-09-02T22:17:45.883Z,15.59
2022-09-02T22:22:56.102Z,15.55
2022-09-02T22:28:09.812Z,15.47
2022-09-02T22:33:19.145Z,15.37
2022-09-02T22:38:33.403Z,15.26
2022-09-02T22:43:47.402Z,15.15
2022-09-02T22:49:09.700Z,15.01
2022-09-02T22:54:14.428Z,14.91
2022-09-02T22:59:32.789Z,14.78
2022-09-02T23:04:53.231Z,14.66
2022-09-02T23:09:59.332Z,14.54
2022-09-02T23:15:22.233Z,14.45
2022-09-02T23:20:34.214Z,14.32
2022-09-02T23:26:09.943Z,14.18
2022-09-02T23:31:26.315Z,14.08
2022-09-02T23:36:42.786Z,13.97
2022-09-02T23:41:47.902Z,13.86
2022-09-02T23:47:07.028Z,13.80
2022-09-02T23:52:26.342Z,13.70
2022-09-02T23:57:46.377Z,13.61
